Time;durP1;ratioP1;P1;durP2;ratioP2;P2;SDS_P1;SDS_P2;PMS_P1;PMS_P2;Temp;Humidity;BMP_temperature;BMP_pressure;BME280_temperature;BME280_humidity;BME280_pressure;Samples;Min_cycle;Max_cycle;Signal;HPM_P1;HPM_P2
2023/03/28 00:00:40;;;;;;;5.83;3.30;;;;;;;;;;5074753;28;20229;-66
2023/03/28 00:03:08;;;;;;;6.30;3.37;;;;;;;;;;5081289;28;20198;-67
2023/03/28 00:05:41;;;;;;;5.83;3.27;;;;;;;;;;5083090;28;20208;-65
2023/03/28 00:08:10;;;;;;;6.03;3.40;;;;;;;;;;5080343;28;20213;-64
2023/03/28 00:10:38;;;;;;;6.30;2.80;;;;;;;;;;5077485;28;20692;-66
2023/03/28 00:13:06;;;;;;;8.87;4.40;;;;;;;;;;5081528;28;20203;-65
2023/03/28 00:15:37;;;;;;;10.73;4.70;;;;;;;;;;5081447;28;20590;-65
2023/03/28 00:18:06;;;;;;;9.57;3.93;;;;;;;;;;5082472;28;20939;-66
2023/03/28 00:20:37;;;;;;;12.87;3.97;;;;;;;;;;5080293;28;20276;-65
2023/03/28 00:23:08;;;;;;;4.57;3.03;;;;;;;;;;5080047;28;20300;-66
2023/03/28 00:25:39;;;;;;;7.10;3.70;;;;;;;;;;5078973;28;20205;-66
2023/03/28 00:28:07;;;;;;;5.60;3.13;;;;;;;;;;5076940;28;20198;-66
2023/03/28 00:30:35;;;;;;;7.87;3.60;;;;;;;;;;5079384;28;20248;-66
2023/03/28 00:33:04;;;;;;;4.60;3.13;;;;;;;;;;5075973;28;20557;-66
2023/03/28 00:35:32;;;;;;;15.70;7.17;;;;;;;;;;5079822;28;20194;-66
2023/03/28 00:38:00;;;;;;;6.00;4.40;;;;;;;;;;5080454;28;20225;-66
2023/03/28 00:40:35;;;;;;;7.87;4.67;;;;;;;;;;5077798;28;20261;-65
2023/03/28 00:43:03;;;;;;;7.27;3.07;;;;;;;;;;5078864;28;20243;-66
2023/03/28 00:45:31;;;;;;;6.43;2.90;;;;;;;;;;5079414;28;20206;-66
2023/03/28 00:48:02;;;;;;;5.73;2.77;;;;;;;;;;5078527;28;20198;-66
2023/03/28 00:50:31;;;;;;;4.27;2.70;;;;;;;;;;5080221;28;20233;-66
2023/03/28 00:53:02;;;;;;;8.47;3.57;;;;;;;;;;5080569;28;20247;-66
2023/03/28 00:55:34;;;;;;;4.70;3.20;;;;;;;;;;5078973;28;20210;-66
2023/03/28 00:58:03;;;;;;;6.07;3.37;;;;;;;;;;5078705;28;20229;-66
2023/03/28 01:00:33;;;;;;;7.00;3.07;;;;;;;;;;5078034;28;20215;-65
2023/03/28 01:03:02;;;;;;;6.40;2.83;;;;;;;;;;5076039;28;20205;-66
2023/03/28 01:05:32;;;;;;;6.33;2.93;;;;;;;;;;5078219;28;20615;-66
2023/03/28 01:08:03;;;;;;;5.50;2.73;;;;;;;;;;5078887;28;20565;-66
2023/03/28 01:10:33;;;;;;;5.27;3.10;;;;;;;;;;5079035;28;20257;-66
2023/03/28 01:13:02;;;;;;;4.70;3.57;;;;;;;;;;5079873;28;20198;-66
2023/03/28 01:15:30;;;;;;;4.53;2.73;;;;;;;;;;5078356;28;20215;-66
2023/03/28 01:18:01;;;;;;;3.40;2.77;;;;;;;;;;5081982;28;20222;-66
2023/03/28 01:20:48;;;;;;;4.00;2.97;;;;;;;;;;5099358;28;20230;-66
2023/03/28 01:23:34;;;;;;;4.93;3.27;;;;;;;;;;5089738;28;20672;-66
2023/03/28 01:26:31;;;;;;;4.87;3.00;;;;;;;;;;5099391;28;20210;-65
2023/03/28 01:29:09;;;;;;;3.57;2.80;;;;;;;;;;5099434;28;20209;-65
2023/03/28 01:31:52;;;;;;;4.23;2.67;;;;;;;;;;5099507;28;20237;-65
2023/03/28 01:34:28;;;;;;;7.80;3.40;;;;;;;;;;5099174;28;20734;-66
2023/03/28 01:37:10;;;;;;;10.70;3.23;;;;;;;;;;5098766;28;20295;-66
2023/03/28 01:39:44;;;;;;;4.83;2.63;;;;;;;;;;5092597;28;20218;-66
2023/03/28 01:42:17;;;;;;;5.33;2.63;;;;;;;;;;5078676;28;20209;-66
2023/03/28 01:44:47;;;;;;;6.30;2.63;;;;;;;;;;5079081;28;20696;-66
2023/03/28 01:47:17;;;;;;;5.30;2.27;;;;;;;;;;5078563;28;20208;-66
2023/03/28 01:49:48;;;;;;;6.20;2.33;;;;;;;;;;5078613;28;20257;-66
2023/03/28 01:52:20;;;;;;;3.70;2.63;;;;;;;;;;5077918;28;20615;-66
2023/03/28 01:54:52;;;;;;;5.13;2.77;;;;;;;;;;5078516;28;20206;-66
2023/03/28 01:57:23;;;;;;;5.07;2.47;;;;;;;;;;5067248;28;20226;-66
2023/03/28 01:59:55;;;;;;;5.77;2.67;;;;;;;;;;5078250;28;20750;-66
2023/03/28 02:02:26;;;;;;;5.10;2.70;;;;;;;;;;5067526;28;20281;-65
2023/03/28 02:04:56;;;;;;;6.10;2.60;;;;;;;;;;5078293;28;20217;-65
2023/03/28 02:07:27;;;;;;;5.23;2.80;;;;;;;;;;5078246;28;20676;-65
2023/03/28 02:09:56;;;;;;;5.43;2.67;;;;;;;;;;5077578;28;20243;-65
2023/03/28 02:12:26;;;;;;;4.60;2.63;;;;;;;;;;5078316;28;20241;-66
2023/03/28 02:14:56;;;;;;;3.27;2.60;;;;;;;;;;5077841;28;20297;-65
2023/03/28 02:17:26;;;;;;;3.43;2.97;;;;;;;;;;5077814;28;20687;-66
2023/03/28 02:19:57;;;;;;;4.77;3.27;;;;;;;;;;5077670;28;20693;-66
2023/03/28 02:22:29;;;;;;;5.73;3.13;;;;;;;;;;5077956;28;20210;-66
2023/03/28 02:24:57;;;;;;;5.73;2.93;;;;;;;;;;5077870;28;20213;-66
2023/03/28 02:27:25;;;;;;;4.43;2.63;;;;;;;;;;5077866;28;20205;-65
2023/03/28 02:29:54;;;;;;;3.50;2.50;;;;;;;;;;5077677;28;20279;-66
2023/03/28 02:32:22;;;;;;;4.63;2.30;;;;;;;;;;5077644;28;20241;-66
2023/03/28 02:34:52;;;;;;;5.67;2.97;;;;;;;;;;5077538;28;20665;-65
2023/03/28 02:37:28;;;;;;;5.73;2.80;;;;;;;;;;5077594;28;20692;-66
2023/03/28 02:40:12;;;;;;;6.10;3.23;;;;;;;;;;5077295;28;20631;-66
2023/03/28 02:42:45;;;;;;;7.03;3.03;;;;;;;;;;5077502;28;20229;-65
2023/03/28 02:45:21;;;;;;;4.50;2.87;;;;;;;;;;5077880;28;20213;-65
2023/03/28 02:47:55;;;;;;;4.87;2.37;;;;;;;;;;5077700;28;20280;-65
2023/03/28 02:50:26;;;;;;;2.80;2.10;;;;;;;;;;5077646;28;20230;-66
2023/03/28 02:52:57;;;;;;;6.47;2.67;;;;;;;;;;5077681;28;20238;-66
2023/03/28 02:55:30;;;;;;;7.27;2.73;;;;;;;;;;5077412;28;20286;-65
2023/03/28 02:58:01;;;;;;;6.07;1.93;;;;;;;;;;5077459;28;20628;-65
2023/03/28 03:00:30;;;;;;;4.83;2.00;;;;;;;;;;5073664;28;20223;-65
2023/03/28 03:02:58;;;;;;;5.00;2.27;;;;;;;;;;5070845;28;20673;-65
2023/03/28 03:05:26;;;;;;;3.07;1.67;;;;;;;;;;5077801;28;20206;-65
2023/03/28 03:07:54;;;;;;;4.03;2.00;;;;;;;;;;5077793;28;20206;-66
2023/03/28 03:10:22;;;;;;;4.60;1.53;;;;;;;;;;5077268;28;20261;-66
2023/03/28 03:12:52;;;;;;;2.17;1.73;;;;;;;;;;5077698;28;20234;-66
2023/03/28 03:15:20;;;;;;;1.73;1.43;;;;;;;;;;5077784;28;20209;-65
2023/03/28 03:17:48;;;;;;;3.67;1.70;;;;;;;;;;5077463;28;20226;-66
2023/03/28 03:20:17;;;;;;;2.57;1.40;;;;;;;;;;5077695;28;20230;-66
2023/03/28 03:22:45;;;;;;;5.63;1.60;;;;;;;;;;5077372;28;20241;-66
2023/03/28 03:25:13;;;;;;;6.53;2.57;;;;;;;;;;5077512;28;20211;-66
2023/03/28 03:27:41;;;;;;;3.87;2.17;;;;;;;;;;5077268;28;20221;-66
2023/03/28 03:30:11;;;;;;;3.93;1.97;;;;;;;;;;5077331;28;20598;-66
2023/03/28 03:32:40;;;;;;;3.87;1.70;;;;;;;;;;5077638;28;20233;-66
2023/03/28 03:35:08;;;;;;;6.07;1.87;;;;;;;;;;5077298;28;20653;-66
2023/03/28 03:37:36;;;;;;;7.67;2.20;;;;;;;;;;5077418;28;20232;-66
2023/03/28 03:40:04;;;;;;;3.83;1.87;;;;;;;;;;5076877;28;20226;-66
2023/03/28 03:42:32;;;;;;;3.33;1.47;;;;;;;;;;5077146;28;20206;-66
2023/03/28 03:45:00;;;;;;;4.30;1.73;;;;;;;;;;5077517;28;20210;-66
2023/03/28 03:47:30;;;;;;;3.67;1.77;;;;;;;;;;5077055;28;20202;-66
2023/03/28 03:49:58;;;;;;;4.90;1.93;;;;;;;;;;5077075;28;20230;-66
2023/03/28 03:52:26;;;;;;;1.83;1.70;;;;;;;;;;5077104;28;20723;-66
2023/03/28 03:54:54;;;;;;;3.30;1.87;;;;;;;;;;5076808;28;20206;-66
2023/03/28 03:57:22;;;;;;;1.87;1.53;;;;;;;;;;5063997;28;20580;-66
2023/03/28 03:59:51;;;;;;;4.60;1.83;;;;;;;;;;5077075;28;20230;-66
2023/03/28 04:02:19;;;;;;;3.50;1.77;;;;;;;;;;5076985;28;20565;-65
2023/03/28 04:04:48;;;;;;;3.60;1.93;;;;;;;;;;5076939;28;20582;-66
2023/03/28 04:07:16;;;;;;;5.13;2.50;;;;;;;;;;5075746;28;20990;-66
2023/03/28 04:09:44;;;;;;;4.20;2.03;;;;;;;;;;5076153;28;20222;-66
2023/03/28 04:12:12;;;;;;;3.07;1.90;;;;;;;;;;5076676;28;20198;-66
2023/03/28 04:14:40;;;;;;;3.57;2.20;;;;;;;;;;5075682;28;20219;-66
2023/03/28 04:17:08;;;;;;;1.97;1.87;;;;;;;;;;5079585;28;20256;-66
2023/03/28 04:19:39;;;;;;;3.30;2.10;;;;;;;;;;5080156;28;20230;-66
2023/03/28 04:22:11;;;;;;;2.57;2.37;;;;;;;;;;5079251;28;20206;-66
2023/03/28 04:24:40;;;;;;;4.33;1.83;;;;;;;;;;5080330;28;20210;-66
2023/03/28 04:27:08;;;;;;;5.00;2.57;;;;;;;;;;5080175;28;20206;-66
2023/03/28 04:29:36;;;;;;;3.50;2.30;;;;;;;;;;5080271;28;20253;-66
2023/03/28 04:32:05;;;;;;;4.57;1.80;;;;;;;;;;5080376;28;20203;-66
2023/03/28 04:34:34;;;;;;;3.73;2.30;;;;;;;;;;5080319;28;20289;-66
2023/03/28 04:37:05;;;;;;;7.77;2.80;;;;;;;;;;5080032;28;20224;-66
2023/03/28 04:39:34;;;;;;;4.53;2.60;;;;;;;;;;5079964;28;20351;-66
2023/03/28 04:42:04;;;;;;;2.50;1.90;;;;;;;;;;5080149;28;20206;-66
2023/03/28 04:44:32;;;;;;;3.30;2.10;;;;;;;;;;5080265;28;20206;-65
2023/03/28 04:47:00;;;;;;;5.87;2.30;;;;;;;;;;5079793;28;20213;-66
2023/03/28 04:49:28;;;;;;;4.23;2.03;;;;;;;;;;5079875;28;20288;-65
2023/03/28 04:51:56;;;;;;;4.37;2.10;;;;;;;;;;5080007;28;20213;-66
2023/03/28 04:54:25;;;;;;;5.10;2.00;;;;;;;;;;5079839;28;20234;-66
2023/03/28 04:56:55;;;;;;;5.20;2.23;;;;;;;;;;5079930;28;20245;-65
2023/03/28 04:59:23;;;;;;;5.43;2.40;;;;;;;;;;5079715;28;20234;-66
2023/03/28 05:01:51;;;;;;;4.17;1.87;;;;;;;;;;5068638;28;20666;-65
2023/03/28 05:04:20;;;;;;;3.43;2.10;;;;;;;;;;5079944;28;20228;-66
2023/03/28 05:06:49;;;;;;;5.43;2.57;;;;;;;;;;5079535;28;20715;-66
2023/03/28 05:09:17;;;;;;;2.63;2.10;;;;;;;;;;5079501;28;20265;-66
2023/03/28 05:11:45;;;;;;;4.93;2.57;;;;;;;;;;5079236;28;20245;-66
2023/03/28 05:14:15;;;;;;;5.03;2.30;;;;;;;;;;5079609;28;20210;-65
2023/03/28 05:16:43;;;;;;;4.87;2.37;;;;;;;;;;5077739;28;20236;-65
2023/03/28 05:19:11;;;;;;;3.47;2.10;;;;;;;;;;5080148;28;20222;-66
2023/03/28 05:21:39;;;;;;;3.50;2.23;;;;;;;;;;5080886;28;20201;-66
2023/03/28 05:24:08;;;;;;;2.97;2.30;;;;;;;;;;5078507;28;20203;-66
2023/03/28 05:26:36;;;;;;;4.33;2.10;;;;;;;;;;5079990;28;20213;-66
2023/03/28 05:29:05;;;;;;;4.00;2.33;;;;;;;;;;5077395;28;20195;-66
2023/03/28 05:31:37;;;;;;;8.93;2.47;;;;;;;;;;5080259;28;20202;-66
2023/03/28 05:34:05;;;;;;;4.33;1.80;;;;;;;;;;5075208;28;20210;-66
2023/03/28 05:36:33;;;;;;;4.60;2.20;;;;;;;;;;5078802;28;20681;-66
2023/03/28 05:39:01;;;;;;;5.33;2.37;;;;;;;;;;5079003;28;21142;-65
2023/03/28 05:41:29;;;;;;;3.57;2.27;;;;;;;;;;5078325;28;20680;-67
2023/03/28 05:43:57;;;;;;;4.67;2.57;;;;;;;;;;5078609;28;20666;-65
2023/03/28 05:46:25;;;;;;;4.43;2.33;;;;;;;;;;5098611;28;20564;-65
2023/03/28 05:48:55;;;;;;;2.83;2.00;;;;;;;;;;5077473;28;20562;-66
2023/03/28 05:51:23;;;;;;;2.93;2.10;;;;;;;;;;5078354;28;20198;-66
2023/03/28 05:53:51;;;;;;;2.27;2.00;;;;;;;;;;5079402;28;20198;-65
2023/03/28 05:56:19;;;;;;;2.10;1.93;;;;;;;;;;5079508;28;20195;-66
2023/03/28 05:58:47;;;;;;;3.37;2.30;;;;;;;;;;5077938;28;20270;-66
2023/03/28 06:01:16;;;;;;;3.23;2.10;;;;;;;;;;5076983;28;20218;-66
2023/03/28 06:03:45;;;;;;;4.03;2.00;;;;;;;;;;5075826;28;20206;-64
2023/03/28 06:06:14;;;;;;;5.37;2.30;;;;;;;;;;5078558;28;20210;-64
2023/03/28 06:08:42;;;;;;;2.87;2.07;;;;;;;;;;5078574;28;20198;-64
2023/03/28 06:11:10;;;;;;;3.73;2.13;;;;;;;;;;5077533;28;20276;-62
2023/03/28 06:13:38;;;;;;;1.70;1.60;;;;;;;;;;5078383;28;20202;-63
2023/03/28 06:16:06;;;;;;;2.53;1.90;;;;;;;;;;5078712;28;20198;-65
2023/03/28 06:18:34;;;;;;;6.30;2.47;;;;;;;;;;5079594;28;20464;-64
2023/03/28 06:21:02;;;;;;;2.60;2.40;;;;;;;;;;5080314;28;20487;-64
2023/03/28 06:23:32;;;;;;;2.23;2.03;;;;;;;;;;5078153;28;20444;-64
2023/03/28 06:26:01;;;;;;;4.23;2.30;;;;;;;;;;5078466;28;20463;-64
2023/03/28 06:28:29;;;;;;;1.87;1.70;;;;;;;;;;5074306;28;20609;-64
2023/03/28 06:30:57;;;;;;;3.40;2.73;;;;;;;;;;5078237;28;20826;-64
2023/03/28 06:33:25;;;;;;;3.43;2.30;;;;;;;;;;5077429;28;20440;-64
2023/03/28 06:35:53;;;;;;;3.77;2.53;;;;;;;;;;5096717;28;20450;-64
2023/03/28 06:38:21;;;;;;;4.10;2.17;;;;;;;;;;5097593;28;20852;-64
2023/03/28 06:40:51;;;;;;;4.13;2.73;;;;;;;;;;5080953;28;20551;-65
2023/03/28 06:43:19;;;;;;;3.43;2.63;;;;;;;;;;5078773;28;20460;-65
2023/03/28 06:45:47;;;;;;;4.37;2.13;;;;;;;;;;5079165;28;20843;-65
2023/03/28 06:48:15;;;;;;;4.23;2.87;;;;;;;;;;5077606;28;20444;-66
2023/03/28 06:50:48;;;;;;;5.10;2.60;;;;;;;;;;5079951;28;20536;-65
2023/03/28 06:53:16;;;;;;;4.47;2.50;;;;;;;;;;5073321;28;20199;-65
2023/03/28 06:55:44;;;;;;;6.20;2.87;;;;;;;;;;5077105;28;20202;-66
2023/03/28 06:58:14;;;;;;;4.33;2.83;;;;;;;;;;5077373;28;20203;-64
2023/03/28 07:00:42;;;;;;;7.40;3.30;;;;;;;;;;5077410;28;20253;-64
2023/03/28 07:03:10;;;;;;;4.97;3.30;;;;;;;;;;5067443;28;20217;-64
2023/03/28 07:05:38;;;;;;;3.67;2.77;;;;;;;;;;5077679;28;20236;-63
2023/03/28 07:08:07;;;;;;;4.03;2.73;;;;;;;;;;5075946;28;20456;-62
2023/03/28 07:10:35;;;;;;;5.33;2.90;;;;;;;;;;5076939;28;20468;-62
2023/03/28 07:13:03;;;;;;;2.67;2.47;;;;;;;;;;5077162;28;20897;-63
2023/03/28 07:15:32;;;;;;;5.27;3.00;;;;;;;;;;5070901;28;21020;-63
2023/03/28 07:18:00;;;;;;;8.47;2.83;;;;;;;;;;5077027;28;20487;-62
2023/03/28 07:20:28;;;;;;;3.50;2.70;;;;;;;;;;5077462;28;20518;-62
2023/03/28 07:22:56;;;;;;;3.43;2.43;;;;;;;;;;5077925;28;20445;-62
2023/03/28 07:25:24;;;;;;;5.93;2.93;;;;;;;;;;5076341;28;20281;-62
2023/03/28 07:27:52;;;;;;;3.23;2.70;;;;;;;;;;5077620;28;20476;-63
2023/03/28 07:30:20;;;;;;;9.70;3.10;;;;;;;;;;5077184;28;21050;-63
2023/03/28 07:32:50;;;;;;;6.50;2.97;;;;;;;;;;5077158;28;20210;-63
2023/03/28 07:35:30;;;;;;;4.43;3.20;;;;;;;;;;5077384;28;20531;-62
2023/03/28 07:37:58;;;;;;;5.40;3.03;;;;;;;;;;5077126;28;20195;-62
2023/03/28 07:40:26;;;;;;;3.30;2.30;;;;;;;;;;5081309;28;20487;-63
2023/03/28 07:42:54;;;;;;;4.83;2.93;;;;;;;;;;5077294;28;20464;-62
2023/03/28 07:45:22;;;;;;;5.07;3.33;;;;;;;;;;5077708;28;20289;-62
2023/03/28 07:47:52;;;;;;;4.27;3.00;;;;;;;;;;5077052;28;20256;-63
2023/03/28 07:50:20;;;;;;;6.83;3.10;;;;;;;;;;5077324;28;20226;-62
2023/03/28 07:52:56;;;;;;;4.10;2.60;;;;;;;;;;5081034;28;20268;-62
2023/03/28 07:55:25;;;;;;;3.70;3.00;;;;;;;;;;5080640;28;20269;-63
2023/03/28 07:57:53;;;;;;;6.77;2.60;;;;;;;;;;5080725;28;20572;-62
2023/03/28 08:00:22;;;;;;;5.80;3.23;;;;;;;;;;5080449;28;20689;-62
2023/03/28 08:02:52;;;;;;;4.50;2.93;;;;;;;;;;5080516;28;20262;-62
2023/03/28 08:05:20;;;;;;;10.83;3.03;;;;;;;;;;5080987;28;20289;-63
2023/03/28 08:07:51;;;;;;;8.00;3.43;;;;;;;;;;5080878;28;20564;-63
2023/03/28 08:10:19;;;;;;;4.70;2.43;;;;;;;;;;5080151;28;20400;-63
2023/03/28 08:12:47;;;;;;;7.50;3.10;;;;;;;;;;5080686;28;20249;-62
2023/03/28 08:15:15;;;;;;;2.73;2.53;;;;;;;;;;5080583;28;20210;-62
2023/03/28 08:17:43;;;;;;;9.70;3.00;;;;;;;;;;5080329;28;20588;-62
2023/03/28 08:20:12;;;;;;;5.20;2.90;;;;;;;;;;5080588;28;20266;-62
2023/03/28 08:22:41;;;;;;;5.60;3.40;;;;;;;;;;5080373;28;20206;-63
2023/03/28 08:25:09;;;;;;;5.20;2.57;;;;;;;;;;5080484;28;20222;-63
2023/03/28 08:27:37;;;;;;;2.93;2.67;;;;;;;;;;5080240;28;20578;-63
2023/03/28 08:30:06;;;;;;;4.03;2.87;;;;;;;;;;5080192;28;20230;-62
2023/03/28 08:32:34;;;;;;;5.30;3.10;;;;;;;;;;5080095;28;20561;-63
2023/03/28 08:35:02;;;;;;;6.00;2.83;;;;;;;;;;5080364;28;20237;-62
2023/03/28 08:37:32;;;;;;;6.40;2.93;;;;;;;;;;5080318;28;20214;-62
2023/03/28 08:40:00;;;;;;;7.80;3.13;;;;;;;;;;5079992;28;20222;-62
2023/03/28 08:42:34;;;;;;;4.77;3.13;;;;;;;;;;5080128;28;20206;-63
2023/03/28 08:45:13;;;;;;;5.63;2.87;;;;;;;;;;5077378;28;20280;-63
2023/03/28 08:47:45;;;;;;;2.70;2.50;;;;;;;;;;5073916;28;20202;-63
2023/03/28 08:50:15;;;;;;;4.93;2.83;;;;;;;;;;5079827;28;20241;-63
2023/03/28 08:52:45;;;;;;;6.47;2.87;;;;;;;;;;5079998;28;20216;-63
2023/03/28 08:55:22;;;;;;;8.43;3.33;;;;;;;;;;5079461;28;20213;-63
2023/03/28 08:57:51;;;;;;;5.77;2.90;;;;;;;;;;5079723;28;20720;-63
2023/03/28 09:00:23;;;;;;;4.13;2.90;;;;;;;;;;5079508;28;20258;-63
2023/03/28 09:02:51;;;;;;;4.90;2.50;;;;;;;;;;5098473;28;20549;-63
2023/03/28 09:05:24;;;;;;;8.63;3.13;;;;;;;;;;5100200;28;20296;-63
2023/03/28 09:07:56;;;;;;;7.20;2.70;;;;;;;;;;5099933;28;20220;-63
2023/03/28 09:10:27;;;;;;;8.00;2.20;;;;;;;;;;5099318;28;20298;-63
2023/03/28 09:13:02;;;;;;;6.70;2.80;;;;;;;;;;5100091;28;20210;-63
2023/03/28 09:15:35;;;;;;;3.53;2.47;;;;;;;;;;5080653;28;20205;-63
2023/03/28 09:18:10;;;;;;;4.57;2.20;;;;;;;;;;5079368;28;20328;-62
2023/03/28 09:20:43;;;;;;;4.57;2.13;;;;;;;;;;5079427;28;20257;-62
2023/03/28 09:23:21;;;;;;;6.27;2.33;;;;;;;;;;5079222;28;20206;-63
2023/03/28 09:25:51;;;;;;;5.37;2.97;;;;;;;;;;5079349;28;20206;-63
2023/03/28 09:28:27;;;;;;;4.63;2.60;;;;;;;;;;5079399;28;20245;-63
2023/03/28 09:30:56;;;;;;;3.97;3.10;;;;;;;;;;5079209;28;20221;-63
2023/03/28 09:33:27;;;;;;;4.50;2.60;;;;;;;;;;5079214;28;20205;-62
2023/03/28 09:35:56;;;;;;;6.07;2.50;;;;;;;;;;5079040;28;20210;-63
2023/03/28 09:38:28;;;;;;;5.37;3.17;;;;;;;;;;5078892;28;20682;-63
2023/03/28 09:40:56;;;;;;;4.30;2.90;;;;;;;;;;5078697;28;20264;-63
2023/03/28 09:43:28;;;;;;;3.07;2.40;;;;;;;;;;5078905;28;20230;-63
2023/03/28 09:45:59;;;;;;;5.77;2.90;;;;;;;;;;5078666;28;20241;-63
2023/03/28 09:48:28;;;;;;;4.03;2.37;;;;;;;;;;5079070;28;20213;-64
2023/03/28 09:50:56;;;;;;;1.90;1.80;;;;;;;;;;5078602;28;20226;-63
2023/03/28 09:53:27;;;;;;;3.80;1.70;;;;;;;;;;5078947;28;20214;-63
2023/03/28 09:56:01;;;;;;;3.73;2.20;;;;;;;;;;5078304;28;20221;-63
2023/03/28 09:58:47;;;;;;;4.37;2.27;;;;;;;;;;5078860;28;20216;-63
2023/03/28 10:01:23;;;;;;;3.60;2.23;;;;;;;;;;5078529;28;20226;-63
2023/03/28 10:03:53;;;;;;;4.40;1.80;;;;;;;;;;5078448;28;20233;-63
2023/03/28 10:06:24;;;;;;;2.60;1.80;;;;;;;;;;5078761;28;20209;-63
2023/03/28 10:09:08;;;;;;;1.67;1.57;;;;;;;;;;5078362;28;20206;-63
2023/03/28 10:11:43;;;;;;;1.90;1.47;;;;;;;;;;5078160;28;20232;-64
2023/03/28 10:14:28;;;;;;;1.60;1.50;;;;;;;;;;5077671;28;20622;-64
2023/03/28 10:16:56;;;;;;;1.60;1.50;;;;;;;;;;5078088;28;20206;-63
2023/03/28 10:19:25;;;;;;;2.20;2.00;;;;;;;;;;5078121;28;20229;-63
2023/03/28 10:21:53;;;;;;;4.33;1.70;;;;;;;;;;5078029;28;20226;-64
2023/03/28 10:24:22;;;;;;;1.60;1.50;;;;;;;;;;5078132;28;20213;-63
2023/03/28 10:26:50;;;;;;;5.90;1.73;;;;;;;;;;5077984;28;20692;-63
2023/03/28 10:29:20;;;;;;;6.33;1.77;;;;;;;;;;5077895;28;20289;-63
2023/03/28 10:31:49;;;;;;;3.47;2.03;;;;;;;;;;5078081;28;20241;-63
2023/03/28 10:34:26;;;;;;;2.83;1.73;;;;;;;;;;5077908;28;20240;-63
2023/03/28 10:36:54;;;;;;;2.40;1.73;;;;;;;;;;5078136;28;20263;-62
2023/03/28 10:39:24;;;;;;;1.80;1.70;;;;;;;;;;5077818;28;20293;-63
2023/03/28 10:41:53;;;;;;;1.63;1.10;;;;;;;;;;5077796;28;20291;-63
2023/03/28 10:44:26;;;;;;;3.57;1.33;;;;;;;;;;5077809;28;20214;-63
2023/03/28 10:46:55;;;;;;;2.73;1.80;;;;;;;;;;5060459;28;20539;-63
2023/03/28 10:49:23;;;;;;;1.83;1.23;;;;;;;;;;5076660;28;20313;-63
2023/03/28 10:51:51;;;;;;;4.30;1.43;;;;;;;;;;5077994;28;20206;-63
2023/03/28 10:54:34;;;;;;;2.70;1.53;;;;;;;;;;5077493;28;20670;-63
2023/03/28 10:57:08;;;;;;;2.07;1.60;;;;;;;;;;5075622;28;20210;-64
2023/03/28 10:59:46;;;;;;;2.57;1.80;;;;;;;;;;5077852;28;20230;-63
2023/03/28 11:02:22;;;;;;;2.43;2.00;;;;;;;;;;5077482;28;20280;-63
2023/03/28 11:04:54;;;;;;;2.87;1.90;;;;;;;;;;5077678;28;20657;-64
2023/03/28 11:07:25;;;;;;;4.53;2.10;;;;;;;;;;5077959;28;20233;-63
2023/03/28 11:09:58;;;;;;;2.90;1.60;;;;;;;;;;5077115;28;20256;-62
2023/03/28 11:12:32;;;;;;;2.30;2.10;;;;;;;;;;5097475;28;20208;-62
2023/03/28 11:15:16;;;;;;;3.67;2.10;;;;;;;;;;5080462;28;20206;-62
2023/03/28 11:17:51;;;;;;;6.53;1.97;;;;;;;;;;5077562;28;20237;-63
2023/03/28 11:20:27;;;;;;;2.17;1.53;;;;;;;;;;5077292;28;20225;-62
2023/03/28 11:23:07;;;;;;;1.77;1.43;;;;;;;;;;5076988;28;20229;-62
2023/03/28 11:25:41;;;;;;;2.70;1.67;;;;;;;;;;5079707;28;20210;-62
2023/03/28 11:28:14;;;;;;;2.90;1.57;;;;;;;;;;5081715;28;20235;-62
2023/03/28 11:30:45;;;;;;;4.53;2.00;;;;;;;;;;5081694;28;20230;-62
2023/03/28 11:33:15;;;;;;;5.27;2.20;;;;;;;;;;5081304;28;20233;-62
2023/03/28 11:35:46;;;;;;;2.93;2.10;;;;;;;;;;5081424;28;20619;-62
2023/03/28 11:38:16;;;;;;;3.23;1.67;;;;;;;;;;5081642;28;20210;-62
2023/03/28 11:40:49;;;;;;;2.40;1.93;;;;;;;;;;5080790;28;20712;-62
2023/03/28 11:43:25;;;;;;;2.70;1.80;;;;;;;;;;5081451;28;20226;-62
2023/03/28 11:45:56;;;;;;;2.20;2.00;;;;;;;;;;5081214;28;20208;-62
2023/03/28 11:48:25;;;;;;;2.83;2.20;;;;;;;;;;5080987;28;20209;-62
2023/03/28 11:50:58;;;;;;;3.50;2.40;;;;;;;;;;5080942;28;20226;-62
2023/03/28 11:53:29;;;;;;;3.70;2.13;;;;;;;;;;5081012;28;20227;-62
2023/03/28 11:56:01;;;;;;;6.13;2.70;;;;;;;;;;5080609;28;20206;-63
2023/03/28 11:58:33;;;;;;;2.73;2.43;;;;;;;;;;5080971;28;20583;-63
2023/03/28 12:01:03;;;;;;;5.47;2.73;;;;;;;;;;5080528;28;20316;-63
2023/03/28 12:03:34;;;;;;;6.27;2.50;;;;;;;;;;5080915;28;20232;-63
2023/03/28 12:06:04;;;;;;;2.03;1.83;;;;;;;;;;5080673;28;20677;-63
2023/03/28 12:08:35;;;;;;;2.30;2.10;;;;;;;;;;5080860;28;20206;-63
2023/03/28 12:11:06;;;;;;;3.63;2.50;;;;;;;;;;5080287;28;20238;-62
2023/03/28 12:13:40;;;;;;;3.73;2.43;;;;;;;;;;5080533;28;20665;-62
2023/03/28 12:16:15;;;;;;;5.07;2.00;;;;;;;;;;5080496;28;20217;-63
2023/03/28 12:18:45;;;;;;;4.30;2.43;;;;;;;;;;5080468;28;20576;-63
2023/03/28 12:21:17;;;;;;;1.90;1.80;;;;;;;;;;5080789;28;20226;-62
2023/03/28 12:23:52;;;;;;;3.53;2.63;;;;;;;;;;5080355;28;20230;-63
2023/03/28 12:26:25;;;;;;;2.00;1.90;;;;;;;;;;5080422;28;20292;-63
2023/03/28 12:28:55;;;;;;;2.73;2.40;;;;;;;;;;5080356;28;20206;-63
2023/03/28 12:31:26;;;;;;;2.57;1.90;;;;;;;;;;5080507;28;20208;-62
2023/03/28 12:33:59;;;;;;;3.80;2.10;;;;;;;;;;5080412;28;20230;-62
2023/03/28 12:36:32;;;;;;;3.20;2.00;;;;;;;;;;5079800;28;20255;-62
2023/03/28 12:39:03;;;;;;;2.20;1.80;;;;;;;;;;5080066;28;20202;-63
2023/03/28 12:41:34;;;;;;;2.30;1.77;;;;;;;;;;5080279;28;20206;-62
2023/03/28 12:44:06;;;;;;;2.30;1.93;;;;;;;;;;5080269;28;20265;-62
2023/03/28 12:46:44;;;;;;;2.90;1.57;;;;;;;;;;5079973;28;20210;-63
2023/03/28 12:49:15;;;;;;;2.53;1.60;;;;;;;;;;5069272;28;20201;-63
2023/03/28 12:51:44;;;;;;;1.80;1.70;;;;;;;;;;5080356;28;20229;-62
2023/03/28 12:54:27;;;;;;;2.53;1.60;;;;;;;;;;5077560;28;20218;-62
2023/03/28 12:57:02;;;;;;;2.83;1.73;;;;;;;;;;5080006;28;20236;-62
2023/03/28 12:59:58;;;;;;;1.67;1.57;;;;;;;;;;5079984;28;20229;-62
2023/03/28 13:02:29;;;;;;;4.03;3.10;;;;;;;;;;5077025;28;20240;-62
2023/03/28 13:04:59;;;;;;;2.10;1.90;;;;;;;;;;5068419;28;20256;-62
2023/03/28 13:07:34;;;;;;;2.03;1.80;;;;;;;;;;5079599;28;20675;-62
2023/03/28 13:10:06;;;;;;;3.63;1.73;;;;;;;;;;5079206;28;20237;-63
2023/03/28 13:12:45;;;;;;;3.17;1.50;;;;;;;;;;5079723;28;20229;-62
2023/03/28 13:15:29;;;;;;;3.87;2.10;;;;;;;;;;5079457;28;20260;-63
2023/03/28 13:18:31;;;;;;;6.20;2.07;;;;;;;;;;5079127;28;20285;-63
2023/03/28 13:21:01;;;;;;;2.13;1.93;;;;;;;;;;5017413;28;20235;-63
2023/03/28 13:23:31;;;;;;;2.57;2.43;;;;;;;;;;5017233;28;20232;-63
2023/03/28 13:26:00;;;;;;;5.57;2.13;;;;;;;;;;5047753;28;20679;-62
2023/03/28 13:28:31;;;;;;;2.93;2.60;;;;;;;;;;5079109;28;20572;-62
2023/03/28 13:31:08;;;;;;;6.20;2.40;;;;;;;;;;5078975;28;20230;-62
2023/03/28 13:33:38;;;;;;;4.00;2.63;;;;;;;;;;5084026;28;20197;-62
2023/03/28 13:36:12;;;;;;;4.13;2.83;;;;;;;;;;5086377;28;20649;-62
2023/03/28 13:38:45;;;;;;;4.50;3.07;;;;;;;;;;5087381;28;20210;-62
2023/03/28 13:41:28;;;;;;;2.93;2.20;;;;;;;;;;5087518;28;20293;-63
2023/03/28 13:43:57;;;;;;;3.10;2.70;;;;;;;;;;5087265;28;20271;-62
2023/03/28 13:46:28;;;;;;;3.70;2.70;;;;;;;;;;5087491;28;20229;-62
2023/03/28 13:49:00;;;;;;;3.90;2.57;;;;;;;;;;5087477;28;20194;-62
2023/03/28 13:51:30;;;;;;;2.53;2.23;;;;;;;;;;5086463;28;20205;-62
2023/03/28 13:53:58;;;;;;;3.80;2.83;;;;;;;;;;5087696;28;20204;-62
2023/03/28 13:56:29;;;;;;;3.83;2.43;;;;;;;;;;5088786;28;20216;-62
2023/03/28 13:58:57;;;;;;;3.20;2.43;;;;;;;;;;5088039;28;20714;-62
2023/03/28 14:01:33;;;;;;;3.93;2.43;;;;;;;;;;5089070;28;20193;-62
2023/03/28 14:04:01;;;;;;;2.67;2.30;;;;;;;;;;5085758;28;20672;-62
2023/03/28 14:06:30;;;;;;;4.77;3.00;;;;;;;;;;5078327;28;20194;-62
2023/03/28 14:09:14;;;;;;;2.97;2.50;;;;;;;;;;5134136;27;20540;-61
2023/03/28 14:11:43;;;;;;;4.27;2.17;;;;;;;;;;5113939;28;20228;-61
2023/03/28 14:14:13;;;;;;;3.80;2.30;;;;;;;;;;5110785;28;20731;-62
2023/03/28 14:16:42;;;;;;;3.07;2.20;;;;;;;;;;5112419;28;20201;-61
2023/03/28 14:19:15;;;;;;;2.57;2.07;;;;;;;;;;5111396;28;20561;-61
2023/03/28 14:21:45;;;;;;;5.90;2.60;;;;;;;;;;5114710;28;20196;-61
2023/03/28 14:24:17;;;;;;;4.43;2.67;;;;;;;;;;5112407;28;20201;-61
2023/03/28 14:26:45;;;;;;;3.33;2.30;;;;;;;;;;5114789;28;20223;-63
2023/03/28 14:29:14;;;;;;;2.83;2.23;;;;;;;;;;5113429;28;20663;-63
2023/03/28 14:31:44;;;;;;;3.03;2.10;;;;;;;;;;5112690;28;20266;-63
2023/03/28 14:34:15;;;;;;;4.23;2.17;;;;;;;;;;5111917;28;20201;-64
2023/03/28 14:36:57;;;;;;;2.83;2.13;;;;;;;;;;5113886;28;20197;-63
2023/03/28 14:39:28;;;;;;;2.67;2.20;;;;;;;;;;5113174;28;20650;-64
2023/03/28 14:41:57;;;;;;;3.90;2.53;;;;;;;;;;5113527;28;20197;-63
2023/03/28 14:44:26;;;;;;;7.20;2.13;;;;;;;;;;5113336;28;20204;-64
2023/03/28 14:46:56;;;;;;;5.03;2.60;;;;;;;;;;5112250;28;20229;-64
2023/03/28 14:49:25;;;;;;;3.03;2.13;;;;;;;;;;5114362;28;20209;-62
2023/03/28 14:51:54;;;;;;;5.00;2.57;;;;;;;;;;5113010;28;20224;-64
2023/03/28 14:54:26;;;;;;;3.40;2.10;;;;;;;;;;5112086;28;20300;-64
2023/03/28 14:56:57;;;;;;;2.93;2.20;;;;;;;;;;5113234;28;20201;-64
2023/03/28 14:59:31;;;;;;;4.77;2.83;;;;;;;;;;5116519;28;20209;-64
2023/03/28 15:02:00;;;;;;;2.00;1.80;;;;;;;;;;5112837;28;20201;-64
2023/03/28 15:04:29;;;;;;;4.77;2.77;;;;;;;;;;5113667;28;20197;-65